createdAt,value
2016-08-13T00:00:41.921Z,0
2016-08-13T00:01:41.913Z,0
2016-08-13T00:03:13.206Z,0
2016-08-13T00:03:41.153Z,0
2016-08-13T00:04:41.865Z,0
2016-08-13T00:05:41.874Z,0
2016-08-13T00:06:41.910Z,0
2016-08-13T00:07:41.859Z,0
2016-08-13T00:08:41.862Z,0
2016-08-13T00:09:41.875Z,0
2016-08-13T00:10:41.858Z,0
2016-08-13T00:11:41.855Z,0
2016-08-13T00:12:41.149Z,0
2016-08-13T00:13:41.862Z,0
2016-08-13T00:14:41.854Z,0
2016-08-13T00:15:41.149Z,0
2016-08-13T00:16:41.854Z,0
2016-08-13T00:17:41.855Z,0
2016-08-13T00:18:41.850Z,0
2016-08-13T00:19:41.850Z,0
2016-08-13T00:20:41.853Z,0
2016-08-13T00:21:41.875Z,0
2016-08-13T00:22:41.846Z,0
2016-08-13T00:23:41.133Z,0
2016-08-13T00:24:41.854Z,0
2016-08-13T00:25:41.854Z,0
2016-08-13T00:26:41.850Z,0
2016-08-13T00:27:41.854Z,0
2016-08-13T00:28:41.846Z,0
2016-08-13T00:29:41.845Z,0
2016-08-13T00:30:41.851Z,0
2016-08-13T00:31:41.838Z,0
2016-08-13T00:32:41.838Z,0
2016-08-13T00:33:41.838Z,0
2016-08-13T00:34:41.842Z,0
2016-08-13T00:35:41.835Z,0
2016-08-13T00:36:43.018Z,0
2016-08-13T00:37:43.291Z,0
2016-08-13T00:38:43.098Z,0
2016-08-13T00:39:42.202Z,0
2016-08-13T00:40:41.838Z,0
2016-08-13T00:41:41.854Z,0
2016-08-13T00:42:41.865Z,0
2016-08-13T00:43:41.874Z,0
2016-08-13T00:44:41.881Z,0
2016-08-13T00:45:41.894Z,0
2016-08-13T00:46:41.882Z,0
2016-08-13T00:48:25.911Z,0
2016-08-13T00:48:41.838Z,0
2016-08-13T00:49:41.824Z,0
2016-08-13T00:50:41.823Z,0
2016-08-13T00:51:41.115Z,0
2016-08-13T00:52:41.831Z,0
2016-08-13T00:53:41.819Z,0
2016-08-13T00:54:41.819Z,0
2016-08-13T00:55:41.819Z,0
2016-08-13T00:56:41.819Z,0
2016-08-13T00:57:41.819Z,0
2016-08-13T00:58:41.838Z,0
2016-08-13T00:59:41.826Z,0
2016-08-13T01:00:41.099Z,0
2016-08-13T01:01:41.819Z,0
2016-08-13T01:02:41.811Z,0
2016-08-13T01:03:41.811Z,0
2016-08-13T01:04:41.811Z,0
2016-08-13T01:05:41.820Z,0
2016-08-13T01:06:41.811Z,0
2016-08-13T01:07:41.815Z,0
2016-08-13T01:08:41.814Z,0
2016-08-13T01:09:41.812Z,0
2016-08-13T01:10:41.152Z,0
2016-08-13T01:11:41.803Z,0
2016-08-13T01:12:41.808Z,0
2016-08-13T01:13:41.100Z,0
2016-08-13T01:14:41.811Z,0
2016-08-13T01:15:41.807Z,0
2016-08-13T01:16:41.808Z,0
2016-08-13T01:17:41.807Z,0
2016-08-13T01:18:41.085Z,0
2016-08-13T01:19:41.804Z,0
2016-08-13T01:20:41.817Z,0
2016-08-13T01:21:41.804Z,0
2016-08-13T01:22:41.801Z,0
2016-08-13T01:23:41.081Z,0
2016-08-13T01:24:41.800Z,0
2016-08-13T01:25:41.792Z,0
2016-08-13T01:26:41.086Z,0
2016-08-13T01:27:41.839Z,0
2016-08-13T01:28:41.847Z,0
2016-08-13T01:29:41.851Z,0
2016-08-13T01:30:41.848Z,0
2016-08-13T01:31:41.848Z,0
2016-08-13T01:32:41.844Z,0
2016-08-13T01:33:41.843Z,0
2016-08-13T01:34:41.785Z,0
2016-08-13T01:35:41.785Z,0
2016-08-13T01:37:43.761Z,0
2016-08-13T01:37:57.101Z,0
2016-08-13T01:38:56.137Z,0
2016-08-13T01:39:56.136Z,0
2016-08-13T01:40:56.164Z,0
2016-08-13T01:41:56.139Z,0
2016-08-13T01:42:56.141Z,0
2016-08-13T01:43:56.153Z,0
2016-08-13T01:44:56.162Z,0
2016-08-13T01:45:56.193Z,0
2016-08-13T01:46:56.184Z,0
2016-08-13T01:47:56.181Z,0
2016-08-13T01:48:56.177Z,0
2016-08-13T01:49:55.457Z,0
2016-08-13T01:50:56.192Z,0
2016-08-13T01:51:56.180Z,0
2016-08-13T01:52:56.196Z,0
2016-08-13T01:53:56.177Z,0
2016-08-13T01:54:56.193Z,0
2016-08-13T01:55:56.197Z,0
2016-08-13T01:56:56.166Z,0
2016-08-13T01:57:56.187Z,0
2016-08-13T01:58:56.177Z,0
2016-08-13T01:59:56.178Z,0
2016-08-13T02:00:56.170Z,0
2016-08-13T02:01:56.169Z,0
2016-08-13T02:02:56.169Z,0
2016-08-13T02:03:55.453Z,0
2016-08-13T02:04:56.165Z,0
2016-08-13T02:05:56.181Z,0
2016-08-13T02:06:56.185Z,0
2016-08-13T02:07:56.166Z,0
2016-08-13T02:08:56.161Z,0
2016-08-13T02:09:56.163Z,0
2016-08-13T02:10:56.161Z,0
2016-08-13T02:11:56.161Z,0
2016-08-13T02:12:56.158Z,0
2016-08-13T02:13:56.157Z,0
2016-08-13T02:14:55.437Z,0
2016-08-13T02:15:56.154Z,0
2016-08-13T02:16:56.157Z,0
2016-08-13T02:17:56.158Z,0
2016-08-13T02:18:56.154Z,0
2016-08-13T02:19:56.154Z,0
2016-08-13T02:20:56.158Z,0
2016-08-13T02:21:56.149Z,0
2016-08-13T02:22:56.150Z,0
2016-08-13T02:23:56.150Z,0
2016-08-13T02:24:55.425Z,0
2016-08-13T02:25:56.166Z,0
2016-08-13T02:26:56.142Z,0
2016-08-13T02:27:56.153Z,0
2016-08-13T02:28:56.141Z,0
2016-08-13T02:29:56.142Z,0
2016-08-13T02:30:56.138Z,0
2016-08-13T02:31:55.417Z,0
2016-08-13T02:32:56.146Z,0
2016-08-13T02:33:56.134Z,0
2016-08-13T02:34:56.129Z,0
2016-08-13T02:35:56.149Z,0
2016-08-13T02:36:56.149Z,0
2016-08-13T02:37:56.137Z,0
2016-08-13T02:38:56.129Z,0
2016-08-13T02:39:56.146Z,0
2016-08-13T02:40:56.129Z,0
2016-08-13T02:41:56.130Z,0
2016-08-13T02:42:56.137Z,0
2016-08-13T02:43:56.139Z,0
2016-08-13T02:44:56.126Z,0
2016-08-13T02:45:56.126Z,0
2016-08-13T02:46:56.142Z,0
2016-08-13T02:47:56.122Z,0
2016-08-13T02:48:56.130Z,0
2016-08-13T02:49:56.131Z,0
2016-08-13T02:50:56.158Z,0
2016-08-13T02:51:56.117Z,0
2016-08-13T02:52:56.115Z,0
2016-08-13T02:53:56.113Z,0
2016-08-13T02:54:56.139Z,0
2016-08-13T02:55:56.110Z,0
2016-08-13T02:56:56.110Z,0
2016-08-13T02:57:56.114Z,0
2016-08-13T02:58:56.119Z,0
2016-08-13T02:59:56.106Z,0
2016-08-13T03:00:55.387Z,0
2016-08-13T03:01:56.107Z,0
2016-08-13T03:02:56.118Z,0
2016-08-13T03:03:56.115Z,0
2016-08-13T03:04:56.121Z,0
2016-08-13T03:05:56.103Z,0
2016-08-13T03:06:56.202Z,0
2016-08-13T03:07:56.099Z,0
2016-08-13T03:08:56.123Z,0
2016-08-13T03:09:56.098Z,0
2016-08-13T03:10:56.094Z,0
2016-08-13T03:11:56.099Z,0
2016-08-13T03:12:56.118Z,0
2016-08-13T03:13:56.095Z,0
2016-08-13T03:14:56.087Z,0
2016-08-13T03:15:56.091Z,0
2016-08-13T03:16:56.087Z,0
2016-08-13T03:17:56.108Z,0
2016-08-13T03:18:56.087Z,0
2016-08-13T03:19:56.095Z,0
2016-08-13T03:20:56.083Z,0
2016-08-13T03:21:56.099Z,0
2016-08-13T03:22:56.095Z,0
2016-08-13T03:23:56.108Z,0
2016-08-13T03:24:56.080Z,0
2016-08-13T03:25:56.084Z,0
2016-08-13T03:26:56.075Z,0
2016-08-13T03:27:56.072Z,0
2016-08-13T03:28:56.083Z,0
2016-08-13T03:29:56.071Z,0
2016-08-13T03:30:56.075Z,0
2016-08-13T03:31:56.079Z,0
2016-08-13T03:32:56.095Z,0
2016-08-13T03:33:56.068Z,0
2016-08-13T03:34:56.064Z,0
2016-08-13T03:35:56.063Z,0
2016-08-13T03:36:55.345Z,0
2016-08-13T03:37:55.348Z,0
2016-08-13T03:38:56.072Z,0
2016-08-13T03:39:56.083Z,0
2016-08-13T03:40:56.059Z,0
2016-08-13T03:41:55.356Z,0
2016-08-13T03:42:56.075Z,0
2016-08-13T03:43:56.060Z,0
2016-08-13T03:44:56.052Z,0
2016-08-13T03:45:56.073Z,0
2016-08-13T03:46:56.056Z,0
2016-08-13T03:47:56.060Z,0
2016-08-13T03:48:55.328Z,0
2016-08-13T03:49:56.056Z,0
2016-08-13T03:50:55.333Z,0
2016-08-13T03:51:56.048Z,0
2016-08-13T03:52:56.039Z,0
2016-08-13T03:53:56.043Z,0
2016-08-13T03:54:56.049Z,0
2016-08-13T03:55:56.040Z,0
2016-08-13T03:56:56.049Z,0
2016-08-13T03:57:56.048Z,0
2016-08-13T03:58:56.036Z,0
2016-08-13T03:59:56.036Z,0
2016-08-13T04:00:56.044Z,0
2016-08-13T04:01:56.040Z,0
2016-08-13T04:02:56.051Z,0
2016-08-13T04:03:56.036Z,0
2016-08-13T04:04:56.041Z,0
2016-08-13T04:05:56.036Z,0
2016-08-13T04:06:56.033Z,0
2016-08-13T04:07:56.029Z,0
2016-08-13T04:08:56.023Z,0
2016-08-13T04:09:56.024Z,0
2016-08-13T04:10:56.025Z,0
2016-08-13T04:11:56.029Z,5
2016-08-13T04:12:56.020Z,5
2016-08-13T04:13:56.016Z,5
2016-08-13T04:14:56.016Z,5
2016-08-13T04:15:56.016Z,5
2016-08-13T04:16:56.025Z,5
2016-08-13T04:17:56.020Z,5
2016-08-13T04:18:56.012Z,5
2016-08-13T04:19:56.017Z,5
2016-08-13T04:20:56.017Z,10
2016-08-13T04:21:55.293Z,10
2016-08-13T04:22:56.009Z,10
2016-08-13T04:23:56.001Z,10
2016-08-13T04:24:56.009Z,10
2016-08-13T04:25:56.009Z,10
2016-08-13T04:26:56.004Z,15
2016-08-13T04:27:56.001Z,15
2016-08-13T04:28:55.277Z,15
2016-08-13T04:29:56.000Z,15
2016-08-13T04:30:55.998Z,15
2016-08-13T04:31:55.997Z,15
2016-08-13T04:32:56.001Z,20
2016-08-13T04:33:56.000Z,20
2016-08-13T04:34:56.001Z,20
2016-08-13T04:35:55.993Z,30
2016-08-13T04:36:55.990Z,40
2016-08-13T04:37:55.994Z,65
2016-08-13T04:38:55.989Z,75
2016-08-13T04:39:55.280Z,80
2016-08-13T04:40:55.986Z,85
2016-08-13T04:41:56.005Z,85
2016-08-13T04:42:55.998Z,90
2016-08-13T04:43:55.994Z,95
2016-08-13T04:44:55.982Z,100
2016-08-13T04:45:55.981Z,105
2016-08-13T04:46:55.989Z,110
2016-08-13T04:47:55.978Z,120
2016-08-13T04:48:55.982Z,125
2016-08-13T04:49:55.987Z,130
2016-08-13T04:50:55.978Z,135
2016-08-13T04:51:55.254Z,140
2016-08-13T04:52:55.982Z,150
2016-08-13T04:53:55.978Z,155
2016-08-13T04:54:55.986Z,160
2016-08-13T04:55:55.975Z,165
2016-08-13T04:56:55.987Z,175
2016-08-13T04:57:55.986Z,190
2016-08-13T04:58:55.978Z,185
2016-08-13T04:59:55.979Z,190
2016-08-13T05:00:55.967Z,200
2016-08-13T05:01:56.226Z,210
2016-08-13T05:02:55.974Z,215
2016-08-13T05:03:55.970Z,215
2016-08-13T05:04:55.974Z,225
2016-08-13T05:05:55.974Z,230
2016-08-13T05:06:56.080Z,240
2016-08-13T05:07:55.983Z,245
2016-08-13T05:08:55.974Z,245
2016-08-13T05:09:55.975Z,250
2016-08-13T05:10:55.975Z,255
2016-08-13T05:11:55.255Z,260
2016-08-13T05:12:55.978Z,265
2016-08-13T05:13:55.990Z,270
2016-08-13T05:14:55.983Z,265
2016-08-13T05:15:55.979Z,275
2016-08-13T05:16:55.978Z,285
2016-08-13T05:17:55.987Z,285
2016-08-13T05:18:55.996Z,295
2016-08-13T05:19:55.979Z,305
2016-08-13T05:20:55.983Z,310
2016-08-13T05:21:55.995Z,310
2016-08-13T05:22:55.990Z,330
2016-08-13T05:23:55.995Z,345
2016-08-13T05:24:55.992Z,340
2016-08-13T05:25:56.003Z,335
2016-08-13T05:26:56.195Z,350
2016-08-13T05:27:55.995Z,375
2016-08-13T05:28:56.011Z,370
2016-08-13T05:29:56.004Z,360
2016-08-13T05:30:56.003Z,375
2016-08-13T05:31:56.006Z,375
2016-08-13T05:32:56.020Z,375
2016-08-13T05:33:56.015Z,385
2016-08-13T05:34:56.014Z,385
2016-08-13T05:35:55.300Z,405
2016-08-13T05:36:56.032Z,400
2016-08-13T05:37:56.019Z,400
2016-08-13T05:38:56.019Z,400
2016-08-13T05:39:56.036Z,410
2016-08-13T05:40:56.035Z,425
2016-08-13T05:41:56.039Z,420
2016-08-13T05:42:56.036Z,430
2016-08-13T05:43:56.039Z,450
2016-08-13T05:44:56.051Z,455
2016-08-13T05:45:56.048Z,450
2016-08-13T05:46:56.056Z,455
2016-08-13T05:47:56.051Z,455
2016-08-13T05:48:56.052Z,470
2016-08-13T05:49:56.064Z,490
2016-08-13T05:50:56.063Z,520
2016-08-13T05:51:56.067Z,520
2016-08-13T05:52:56.080Z,505
2016-08-13T05:53:56.080Z,510
2016-08-13T05:54:56.080Z,560
2016-08-13T05:55:56.087Z,630
2016-08-13T05:56:56.088Z,555
2016-08-13T05:57:56.097Z,535
2016-08-13T05:58:56.112Z,535
2016-08-13T05:59:56.101Z,535
2016-08-13T06:00:56.104Z,555
2016-08-13T06:01:56.120Z,550
2016-08-13T06:02:55.398Z,575
2016-08-13T06:03:56.120Z,595
2016-08-13T06:04:56.132Z,585
2016-08-13T06:05:56.136Z,595
2016-08-13T06:06:56.136Z,610
2016-08-13T06:07:56.136Z,610
2016-08-13T06:08:56.152Z,625
2016-08-13T06:09:56.153Z,625
2016-08-13T06:10:56.152Z,625
2016-08-13T06:11:56.152Z,645
2016-08-13T06:12:56.165Z,670
2016-08-13T06:13:56.168Z,675
2016-08-13T06:14:56.173Z,660
2016-08-13T06:15:56.190Z,685
2016-08-13T06:16:56.185Z,670
2016-08-13T06:17:56.188Z,655
2016-08-13T06:18:56.205Z,670
2016-08-13T06:19:55.484Z,695
2016-08-13T06:20:56.216Z,710
2016-08-13T06:21:55.501Z,720
2016-08-13T06:22:56.216Z,675
2016-08-13T06:23:56.224Z,685
2016-08-13T06:24:56.229Z,690
2016-08-13T06:25:55.514Z,680
2016-08-13T06:26:56.240Z,675
2016-08-13T06:27:56.251Z,725
2016-08-13T06:28:56.252Z,690
2016-08-13T06:29:56.261Z,695
2016-08-13T06:30:56.276Z,705
2016-08-13T06:31:56.272Z,710
2016-08-13T06:32:56.281Z,725
2016-08-13T06:33:56.285Z,740
2016-08-13T06:34:56.293Z,725
2016-08-13T06:35:56.297Z,765
2016-08-13T06:36:56.305Z,755
2016-08-13T06:37:56.322Z,720
2016-08-13T06:38:56.317Z,760
2016-08-13T06:39:56.329Z,795
2016-08-13T06:40:56.346Z,725
2016-08-13T06:41:56.341Z,720
2016-08-13T06:42:56.349Z,755
2016-08-13T06:43:56.354Z,795
2016-08-13T06:44:56.366Z,765
2016-08-13T06:45:56.366Z,795
2016-08-13T06:46:55.661Z,845
2016-08-13T06:47:55.661Z,795
2016-08-13T06:48:56.390Z,805
2016-08-13T06:49:56.393Z,775
2016-08-13T06:50:56.405Z,775
2016-08-13T06:51:56.410Z,795
2016-08-13T06:52:56.417Z,830
2016-08-13T06:53:56.429Z,835
2016-08-13T06:54:56.434Z,815
2016-08-13T06:55:56.449Z,875
2016-08-13T06:56:56.454Z,870
2016-08-13T06:57:56.454Z,905
2016-08-13T06:58:56.466Z,855
2016-08-13T06:59:56.487Z,870
2016-08-13T07:00:56.494Z,895
2016-08-13T07:01:56.486Z,890
2016-08-13T07:02:55.774Z,875
2016-08-13T07:03:56.515Z,915
2016-08-13T07:04:56.511Z,945
2016-08-13T07:05:56.518Z,930
2016-08-13T07:06:56.627Z,975
2016-08-13T07:07:56.538Z,945
2016-08-13T07:08:56.542Z,910
2016-08-13T07:09:56.551Z,900
2016-08-13T07:10:56.562Z,970
2016-08-13T07:11:56.567Z,915
2016-08-13T07:12:56.579Z,860
2016-08-13T07:13:56.583Z,935
2016-08-13T07:14:56.590Z,945
2016-08-13T07:15:56.599Z,950
2016-08-13T07:16:55.887Z,915
2016-08-13T07:17:56.615Z,945
2016-08-13T07:18:56.639Z,985
2016-08-13T07:19:56.639Z,935
2016-08-13T07:20:56.643Z,920
2016-08-13T07:21:56.651Z,955
2016-08-13T07:22:56.671Z,970
2016-08-13T07:23:56.668Z,955
2016-08-13T07:24:56.682Z,1020
2016-08-13T07:25:56.688Z,1010
2016-08-13T07:26:56.691Z,995
2016-08-13T07:27:56.707Z,935
2016-08-13T07:28:56.712Z,935
2016-08-13T07:29:56.719Z,965
2016-08-13T07:30:56.011Z,1005
2016-08-13T07:31:56.739Z,1030
2016-08-13T07:32:56.763Z,1020
2016-08-13T07:33:56.755Z,1015
2016-08-13T07:34:56.768Z,1035
2016-08-13T07:35:56.775Z,1070
2016-08-13T07:36:56.784Z,1115
2016-08-13T07:37:56.792Z,1140
2016-08-13T07:38:56.808Z,1180
2016-08-13T07:39:56.812Z,1210
2016-08-13T07:40:56.835Z,1230
2016-08-13T07:41:56.828Z,1300
2016-08-13T07:42:56.120Z,1260
2016-08-13T07:43:56.864Z,1140
2016-08-13T07:44:56.860Z,1160
2016-08-13T07:45:56.868Z,1140
2016-08-13T07:46:56.875Z,1170
2016-08-13T07:47:56.889Z,1200
2016-08-13T07:48:56.172Z,1165
2016-08-13T07:49:56.911Z,1180
2016-08-13T07:50:56.924Z,1125
2016-08-13T07:51:56.928Z,1180
2016-08-13T07:52:56.932Z,1220
2016-08-13T07:53:56.945Z,1160
2016-08-13T07:54:56.957Z,1165
2016-08-13T07:55:56.960Z,1150
2016-08-13T07:56:56.968Z,1170
2016-08-13T07:57:56.980Z,1100
2016-08-13T07:58:56.988Z,1110
2016-08-13T07:59:57.001Z,1250
2016-08-13T08:00:57.021Z,1225
2016-08-13T08:01:57.012Z,1190
2016-08-13T08:02:57.028Z,1125
2016-08-13T08:03:57.040Z,1065
2016-08-13T08:04:57.048Z,1130
2016-08-13T08:05:57.064Z,1100
2016-08-13T08:06:57.164Z,1160
2016-08-13T08:07:57.076Z,1245
2016-08-13T08:08:56.372Z,1195
2016-08-13T08:09:56.371Z,1230
2016-08-13T08:10:57.125Z,1210
2016-08-13T08:11:57.125Z,1230
2016-08-13T08:12:57.124Z,1305
2016-08-13T08:13:57.136Z,1285
2016-08-13T08:14:57.140Z,1230
2016-08-13T08:15:57.156Z,1310
2016-08-13T08:16:57.169Z,1430
2016-08-13T08:17:57.172Z,1390
2016-08-13T08:18:57.180Z,1335
2016-08-13T08:19:57.194Z,1215
2016-08-13T08:20:57.204Z,1110
2016-08-13T08:21:57.208Z,1065
2016-08-13T08:22:57.220Z,1045
2016-08-13T08:23:57.228Z,990
2016-08-13T08:24:57.237Z,955
2016-08-13T08:25:57.251Z,830
2016-08-13T08:26:57.261Z,785
2016-08-13T08:27:57.268Z,880
2016-08-13T08:28:57.277Z,930
2016-08-13T08:29:57.297Z,975
2016-08-13T08:30:57.305Z,1120
2016-08-13T08:31:57.304Z,860
2016-08-13T08:32:57.309Z,595
2016-08-13T08:33:57.329Z,550
2016-08-13T08:34:57.356Z,570
2016-08-13T08:35:57.357Z,600
2016-08-13T08:36:57.354Z,665
2016-08-13T08:37:57.361Z,690
2016-08-13T08:38:56.650Z,675
2016-08-13T08:39:57.385Z,715
2016-08-13T08:40:57.393Z,715
2016-08-13T08:41:57.425Z,740
2016-08-13T08:42:57.417Z,735
2016-08-13T08:43:56.693Z,775
2016-08-13T08:44:56.709Z,765
2016-08-13T08:45:57.434Z,785
2016-08-13T08:46:57.441Z,680
2016-08-13T08:47:57.450Z,420
2016-08-13T08:48:57.458Z,185
2016-08-13T08:49:57.465Z,165
2016-08-13T08:50:57.474Z,160
2016-08-13T08:51:57.482Z,155
2016-08-13T08:52:57.494Z,150
2016-08-13T08:53:56.786Z,150
2016-08-13T08:54:57.522Z,145
2016-08-13T08:55:57.530Z,145
2016-08-13T08:56:57.535Z,140
2016-08-13T08:57:57.538Z,140
2016-08-13T08:58:57.542Z,120
2016-08-13T08:59:57.558Z,10
2016-08-13T09:00:57.558Z,5
2016-08-13T09:01:57.566Z,5
2016-08-13T09:02:57.578Z,5
2016-08-13T09:03:57.583Z,5
2016-08-13T09:04:57.590Z,5
2016-08-13T09:05:57.602Z,5
2016-08-13T09:06:57.610Z,5
2016-08-13T09:07:56.903Z,5
2016-08-13T09:08:57.625Z,5
2016-08-13T09:09:57.626Z,5
2016-08-13T09:10:57.630Z,5
2016-08-13T09:11:57.642Z,5
2016-08-13T09:12:57.649Z,5
2016-08-13T09:13:57.651Z,5
2016-08-13T09:14:57.662Z,5
2016-08-13T09:15:57.667Z,5
2016-08-13T09:16:57.671Z,5
2016-08-13T09:17:57.686Z,5
2016-08-13T09:18:57.683Z,5
2016-08-13T09:19:57.699Z,5
2016-08-13T09:20:57.694Z,5
2016-08-13T09:21:57.702Z,5
2016-08-13T09:22:57.706Z,5
2016-08-13T09:23:57.715Z,5
2016-08-13T09:24:57.719Z,5
2016-08-13T09:25:57.727Z,5
2016-08-13T09:26:57.730Z,5
2016-08-13T09:27:58.143Z,5
2016-08-13T09:28:57.747Z,5
2016-08-13T09:29:57.746Z,5
2016-08-13T09:30:57.751Z,5
2016-08-13T09:31:57.762Z,5
2016-08-13T09:32:57.762Z,5
2016-08-13T09:33:57.051Z,5
2016-08-13T09:34:57.774Z,5
2016-08-13T09:35:57.062Z,5
2016-08-13T09:36:57.795Z,5
2016-08-13T09:37:57.782Z,5
2016-08-13T09:38:57.079Z,5
2016-08-13T09:39:57.799Z,5
2016-08-13T09:40:57.803Z,5
2016-08-13T09:41:57.808Z,5
2016-08-13T09:42:57.087Z,5
2016-08-13T09:43:57.824Z,5
2016-08-13T09:44:57.824Z,5
2016-08-13T09:45:57.830Z,5
2016-08-13T09:46:57.832Z,5
2016-08-13T09:47:57.840Z,5
2016-08-13T09:48:57.842Z,0
2016-08-13T09:49:57.844Z,0
2016-08-13T09:50:57.852Z,0
2016-08-13T09:51:57.856Z,0
2016-08-13T09:52:57.863Z,0
2016-08-13T09:53:57.864Z,0
2016-08-13T09:54:57.872Z,0
2016-08-13T09:55:57.151Z,0
2016-08-13T09:56:57.879Z,0
2016-08-13T09:57:57.881Z,0
2016-08-13T09:58:57.888Z,0
2016-08-13T09:59:57.891Z,0
2016-08-13T10:00:57.892Z,0
2016-08-13T10:01:57.901Z,0
2016-08-13T10:02:57.900Z,0
2016-08-13T10:03:57.912Z,0
2016-08-13T10:04:57.914Z,0
2016-08-13T10:05:57.912Z,0
2016-08-13T10:06:57.967Z,0
2016-08-13T10:07:57.931Z,0
2016-08-13T10:08:57.924Z,0
2016-08-13T10:09:57.939Z,0
2016-08-13T10:10:57.932Z,0
2016-08-13T10:11:57.952Z,0
2016-08-13T10:12:57.941Z,0
2016-08-13T10:13:57.944Z,0
2016-08-13T10:14:57.948Z,0
2016-08-13T10:15:57.960Z,0
2016-08-13T10:16:57.956Z,0
2016-08-13T10:17:57.965Z,0
2016-08-13T10:18:57.973Z,0
2016-08-13T10:19:57.973Z,0
2016-08-13T10:20:57.968Z,0
2016-08-13T10:21:57.252Z,0
2016-08-13T10:22:57.977Z,0
2016-08-13T10:23:57.985Z,0
2016-08-13T10:24:57.992Z,0
2016-08-13T10:25:57.985Z,0
2016-08-13T10:26:57.993Z,0
2016-08-13T10:27:58.001Z,0
2016-08-13T10:28:58.005Z,0
2016-08-13T10:29:58.080Z,0
2016-08-13T10:30:58.012Z,0
2016-08-13T10:31:58.009Z,0
2016-08-13T10:32:58.028Z,0
2016-08-13T10:33:58.036Z,0
2016-08-13T10:34:58.021Z,0
2016-08-13T10:35:58.032Z,0
2016-08-13T10:36:58.021Z,0
2016-08-13T10:37:58.033Z,0
2016-08-13T10:38:58.036Z,0
2016-08-13T10:39:58.037Z,0
2016-08-13T10:40:58.042Z,0
2016-08-13T10:41:58.053Z,0
2016-08-13T10:42:58.044Z,0
2016-08-13T10:43:58.049Z,0
2016-08-13T10:44:58.049Z,0
2016-08-13T10:45:58.057Z,0
2016-08-13T10:46:58.065Z,0
2016-08-13T10:47:58.061Z,0
2016-08-13T10:48:57.352Z,0
2016-08-13T10:49:58.073Z,0
2016-08-13T10:50:58.073Z,0
2016-08-13T10:51:58.074Z,0
2016-08-13T10:52:58.073Z,0
2016-08-13T10:53:58.077Z,0
2016-08-13T10:54:57.362Z,0
2016-08-13T10:55:58.089Z,0
2016-08-13T10:56:58.089Z,0
2016-08-13T10:57:58.098Z,0
2016-08-13T10:58:58.106Z,0
2016-08-13T10:59:58.102Z,0
2016-08-13T11:00:58.106Z,0
2016-08-13T11:01:58.122Z,0
2016-08-13T11:02:58.106Z,0
2016-08-13T11:03:58.114Z,0
2016-08-13T11:04:58.121Z,0
2016-08-13T11:05:58.118Z,0
2016-08-13T11:06:58.122Z,0
2016-08-13T11:07:58.134Z,0
2016-08-13T11:08:58.127Z,0
2016-08-13T11:09:58.130Z,0
2016-08-13T11:10:58.142Z,0
2016-08-13T11:11:57.434Z,0
2016-08-13T11:12:58.135Z,0
2016-08-13T11:13:58.142Z,0
2016-08-13T11:14:58.146Z,0
2016-08-13T11:15:58.158Z,0
2016-08-13T11:16:58.157Z,0
2016-08-13T11:17:58.159Z,0
2016-08-13T11:18:58.155Z,0
2016-08-13T11:19:58.158Z,0
2016-08-13T11:20:58.163Z,0
2016-08-13T11:21:58.171Z,0
2016-08-13T11:22:58.191Z,0
2016-08-13T11:23:58.175Z,0
2016-08-13T11:24:58.182Z,0
2016-08-13T11:25:58.178Z,0
2016-08-13T11:26:58.179Z,0
2016-08-13T11:27:58.182Z,0
2016-08-13T11:28:58.187Z,0
2016-08-13T11:29:58.187Z,0
2016-08-13T11:30:58.191Z,0
2016-08-13T11:31:58.195Z,0
2016-08-13T11:32:58.195Z,0
2016-08-13T11:33:58.199Z,0
2016-08-13T11:34:58.203Z,0
2016-08-13T11:35:58.203Z,0
2016-08-13T11:36:58.223Z,0
2016-08-13T11:37:58.211Z,0
2016-08-13T11:38:58.211Z,0
2016-08-13T11:39:58.215Z,0
2016-08-13T11:40:58.236Z,0
2016-08-13T11:41:58.219Z,0
2016-08-13T11:42:58.226Z,0
2016-08-13T11:43:58.239Z,0
2016-08-13T11:44:58.228Z,0
2016-08-13T11:45:58.231Z,0
2016-08-13T11:46:58.235Z,0
2016-08-13T11:47:58.247Z,0
2016-08-13T11:48:58.239Z,0
2016-08-13T11:49:58.248Z,0
2016-08-13T11:50:58.251Z,0
2016-08-13T11:51:58.248Z,0
2016-08-13T11:52:58.247Z,0
2016-08-13T11:53:58.252Z,0
2016-08-13T11:54:58.260Z,0
2016-08-13T11:55:58.264Z,0
2016-08-13T11:56:58.261Z,0
2016-08-13T11:57:58.260Z,0
2016-08-13T11:58:58.264Z,0
2016-08-13T11:59:58.267Z,0
2016-08-13T12:00:58.280Z,0
2016-08-13T12:01:58.280Z,0
2016-08-13T12:02:58.276Z,0
2016-08-13T12:03:57.560Z,0
2016-08-13T12:04:58.280Z,0
2016-08-13T12:05:58.284Z,0
2016-08-13T12:06:57.093Z,0
2016-08-13T12:07:58.293Z,0
2016-08-13T12:08:58.292Z,0
2016-08-13T12:09:58.301Z,0
2016-08-13T12:10:58.312Z,0
2016-08-13T12:11:57.584Z,0
2016-08-13T12:12:58.343Z,0
2016-08-13T12:13:58.300Z,0
2016-08-13T12:14:58.312Z,0
2016-08-13T12:15:58.308Z,0
2016-08-13T12:16:58.308Z,0
2016-08-13T12:17:58.313Z,0
2016-08-13T12:18:57.596Z,0
2016-08-13T12:19:58.316Z,0
2016-08-13T12:20:57.601Z,0
2016-08-13T12:21:58.324Z,0
2016-08-13T12:22:58.325Z,0
2016-08-13T12:23:58.328Z,0
2016-08-13T12:24:58.329Z,0
2016-08-13T12:25:57.608Z,0
2016-08-13T12:27:58.345Z,0
2016-08-13T12:28:58.332Z,0
2016-08-13T12:29:58.353Z,0
2016-08-13T12:30:58.341Z,0
2016-08-13T12:31:58.341Z,0
2016-08-13T12:32:58.345Z,0
2016-08-13T12:33:58.349Z,0
2016-08-13T12:34:58.352Z,0
2016-08-13T12:35:58.361Z,0
2016-08-13T12:36:58.356Z,0
2016-08-13T12:37:58.365Z,0
2016-08-13T12:38:58.360Z,0
2016-08-13T12:39:58.364Z,0
2016-08-13T12:40:58.368Z,0
2016-08-13T12:41:58.368Z,0
2016-08-13T12:42:58.377Z,0
2016-08-13T12:43:58.368Z,0
2016-08-13T12:44:58.381Z,0
2016-08-13T12:45:58.377Z,0
2016-08-13T12:46:58.385Z,0
2016-08-13T12:47:58.381Z,0
2016-08-13T12:48:58.385Z,0
2016-08-13T12:49:57.669Z,0
2016-08-13T12:50:58.390Z,0
2016-08-13T12:51:58.389Z,0
2016-08-13T12:52:58.402Z,0
2016-08-13T12:53:58.398Z,0
2016-08-13T12:54:58.408Z,0
2016-08-13T12:55:58.405Z,0
2016-08-13T12:56:58.402Z,0
2016-08-13T12:57:58.407Z,0
2016-08-13T12:58:58.403Z,0
2016-08-13T12:59:58.409Z,0
2016-08-13T13:00:58.409Z,0
2016-08-13T13:01:58.422Z,0
2016-08-13T13:02:58.429Z,0
2016-08-13T13:03:58.417Z,0
2016-08-13T13:04:58.421Z,0
2016-08-13T13:05:58.429Z,0
2016-08-13T13:06:57.714Z,0
2016-08-13T13:07:58.433Z,0
2016-08-13T13:08:57.726Z,0
2016-08-13T13:09:58.432Z,0
2016-08-13T13:10:58.444Z,0
2016-08-13T13:11:58.434Z,0
2016-08-13T13:12:58.438Z,0
2016-08-13T13:13:57.726Z,0
2016-08-13T13:14:58.443Z,0
2016-08-13T13:15:58.446Z,0
2016-08-13T13:16:58.447Z,0
2016-08-13T13:17:58.454Z,0
2016-08-13T13:18:58.458Z,0
2016-08-13T13:19:58.459Z,0
2016-08-13T13:20:58.455Z,0
2016-08-13T13:21:58.454Z,0
2016-08-13T13:22:57.735Z,0
2016-08-13T13:23:58.463Z,0
2016-08-13T13:24:57.734Z,0
2016-08-13T13:25:58.467Z,0
2016-08-13T13:26:58.466Z,0
2016-08-13T13:27:58.471Z,0
2016-08-13T13:28:58.470Z,0
2016-08-13T13:29:58.474Z,0
2016-08-13T13:30:58.479Z,0
2016-08-13T13:31:58.478Z,0
2016-08-13T13:32:58.479Z,0
2016-08-13T13:33:58.483Z,0
2016-08-13T13:34:58.495Z,0
2016-08-13T13:35:58.487Z,0
2016-08-13T13:36:58.491Z,0
2016-08-13T13:37:57.771Z,0
2016-08-13T13:38:58.511Z,0
2016-08-13T13:39:58.495Z,0
2016-08-13T13:40:58.499Z,0
2016-08-13T13:41:57.787Z,0
2016-08-13T13:42:58.502Z,0
2016-08-13T13:43:58.503Z,0
2016-08-13T13:44:58.507Z,0
2016-08-13T13:45:58.504Z,0
2016-08-13T13:46:58.510Z,0
2016-08-13T13:47:58.507Z,0
2016-08-13T13:48:57.795Z,0
2016-08-13T13:49:58.515Z,0
2016-08-13T13:50:58.519Z,0
2016-08-13T13:51:58.520Z,0
2016-08-13T13:52:58.526Z,0
2016-08-13T13:53:57.803Z,0
2016-08-13T13:54:58.535Z,0
2016-08-13T13:55:58.527Z,0
2016-08-13T13:56:58.536Z,0
2016-08-13T13:57:58.547Z,0
2016-08-13T13:58:58.535Z,0
2016-08-13T13:59:58.639Z,0
2016-08-13T14:00:58.539Z,0
2016-08-13T14:01:58.539Z,0
2016-08-13T14:02:58.539Z,0
2016-08-13T14:03:58.548Z,0
2016-08-13T14:04:58.547Z,0
2016-08-13T14:05:58.543Z,0
2016-08-13T14:06:58.603Z,0
2016-08-13T14:07:58.555Z,0
2016-08-13T14:08:58.563Z,0
2016-08-13T14:09:58.576Z,0
2016-08-13T14:10:57.839Z,0
2016-08-13T14:11:58.563Z,0
2016-08-13T14:12:58.563Z,0
2016-08-13T14:13:58.575Z,0
2016-08-13T14:14:58.567Z,0
2016-08-13T14:15:58.584Z,0
2016-08-13T14:16:58.571Z,0
2016-08-13T14:17:58.572Z,0
2016-08-13T14:18:58.572Z,0
2016-08-13T14:19:58.580Z,0
2016-08-13T14:20:57.860Z,0
2016-08-13T14:21:57.863Z,0
2016-08-13T14:22:58.585Z,0
2016-08-13T14:23:58.585Z,0
2016-08-13T14:24:58.584Z,0
2016-08-13T14:25:58.592Z,0
2016-08-13T14:26:58.592Z,0